Time,TemperatureF,DewpointF,PressureIn,WindDirection,WindDirectionDegrees,WindSpeedMPH,WindSpeedGustMPH,Humidity,HourlyPrecipIn,Conditions,Clouds,dailyrainin,SoftwareType,DateUTC
2013-04-10 00:01:00,60.7,51.0,29.93,NW,304,0.0,-999.0,71,-99.99,,,0.00,weatherlink.com 1.10,2013-04-10 04:01:00,
2013-04-10 00:16:00,59.8,51.0,29.93,NW,309,0.0,-999.0,73,-99.99,,,0.00,weatherlink.com 1.10,2013-04-10 04:16:00,
2013-04-10 00:46:00,59.0,51.0,29.94,WNW,298,0.0,-999.0,75,-99.99,,,0.00,weatherlink.com 1.10,2013-04-10 04:46:00,
2013-04-10 01:01:00,58.3,51.0,29.95,South,178,0.0,-999.0,77,-99.99,,,0.00,weatherlink.com 1.10,2013-04-10 05:01:00,
2013-04-10 01:16:00,57.3,51.0,29.95,South,178,0.0,-999.0,79,-99.99,,,0.00,weatherlink.com 1.10,2013-04-10 05:16:00,
2013-04-10 01:46:00,57.5,51.0,29.94,South,178,0.0,-999.0,78,-99.99,,,0.00,weatherlink.com 1.10,2013-04-10 05:46:00,
2013-04-10 02:01:00,57.8,51.0,29.94,South,178,0.0,-999.0,77,-99.99,,,0.00,weatherlink.com 1.10,2013-04-10 06:01:00,
2013-04-10 02:16:00,57.6,50.0,29.94,South,178,0.0,-999.0,77,-99.99,,,0.00,weatherlink.com 1.10,2013-04-10 06:16:00,
2013-04-10 02:31:00,57.8,51.0,29.93,South,182,0.0,-999.0,77,-99.99,,,0.00,weatherlink.com 1.10,2013-04-10 06:31:00,
2013-04-10 02:46:00,56.9,50.0,29.93,South,182,0.0,-999.0,79,-99.99,,,0.00,weatherlink.com 1.10,2013-04-10 06:46:00,
2013-04-10 03:01:00,55.9,50.0,29.93,South,182,0.0,-999.0,81,-99.99,,,0.00,weatherlink.com 1.10,2013-04-10 07:01:00,
2013-04-10 03:17:00,55.6,50.0,29.93,South,186,0.0,-999.0,81,-99.99,,,0.00,weatherlink.com 1.10,2013-04-10 07:17:00,
2013-04-10 03:31:00,56.5,51.0,29.93,SSW,195,0.0,-999.0,81,-99.99,,,0.00,weatherlink.com 1.10,2013-04-10 07:31:00,
2013-04-10 03:47:00,57.6,51.0,29.93,SSW,196,0.0,-999.0,78,-99.99,,,0.00,weatherlink.com 1.10,2013-04-10 07:47:00,
2013-04-10 04:01:00,58.1,51.0,29.92,SSW,206,0.0,-999.0,78,-99.99,,,0.00,weatherlink.com 1.10,2013-04-10 08:01:00,
2013-04-10 04:17:00,58.3,51.0,29.92,SSW,208,0.0,-999.0,78,-99.99,,,0.00,weatherlink.com 1.10,2013-04-10 08:17:00,
2013-04-10 04:31:00,58.3,51.0,29.93,SSW,198,0.0,-999.0,78,-99.99,,,0.00,weatherlink.com 1.10,2013-04-10 08:31:00,
2013-04-10 04:46:00,58.4,51.0,29.92,SW,234,0.0,-999.0,77,-99.99,,,0.00,weatherlink.com 1.10,2013-04-10 08:46:00,
2013-04-10 05:01:00,58.4,51.0,29.92,SSW,200,0.0,-999.0,77,-99.99,,,0.00,weatherlink.com 1.10,2013-04-10 09:01:00,
2013-04-10 05:17:00,58.9,51.0,29.92,SW,216,0.0,-999.0,76,-99.99,,,0.00,weatherlink.com 1.10,2013-04-10 09:17:00,
2013-04-10 05:32:00,58.6,51.0,29.92,SSW,200,0.0,-999.0,77,-99.99,,,0.00,weatherlink.com 1.10,2013-04-10 09:32:00,
2013-04-10 05:47:00,57.3,51.0,29.93,SSW,193,2.0,-999.0,79,-99.99,,,0.00,weatherlink.com 1.10,2013-04-10 09:47:00,
2013-04-10 06:02:00,56.5,51.0,29.93,SW,216,0.0,-999.0,82,-99.99,,,0.00,weatherlink.com 1.10,2013-04-10 10:02:00,
2013-04-10 06:17:00,56.5,51.0,29.93,South,176,0.0,-999.0,81,-99.99,,,0.00,weatherlink.com 1.10,2013-04-10 10:17:00,
2013-04-10 06:32:00,56.5,51.0,29.95,South,176,0.0,-999.0,81,-99.99,,,0.00,weatherlink.com 1.10,2013-04-10 10:32:00,
2013-04-10 06:47:00,56.9,51.0,29.95,South,186,1.0,-999.0,80,-99.99,,,0.00,weatherlink.com 1.10,2013-04-10 10:47:00,
2013-04-10 07:02:00,57.0,51.0,29.96,South,191,0.0,-999.0,80,-99.99,,,0.00,weatherlink.com 1.10,2013-04-10 11:02:00,
2013-04-10 07:17:00,57.8,51.0,29.96,South,191,0.0,-999.0,78,-99.99,,,0.00,weatherlink.com 1.10,2013-04-10 11:17:00,
2013-04-10 07:32:00,57.5,51.0,29.97,South,191,0.0,-999.0,79,-99.99,,,0.00,weatherlink.com 1.10,2013-04-10 11:32:00,
2013-04-10 07:47:00,58.6,51.0,29.98,SSW,195,0.0,-999.0,75,-99.99,,,0.00,weatherlink.com 1.10,2013-04-10 11:47:00,
2013-04-10 08:02:00,59.2,51.0,29.97,SSW,196,0.0,-999.0,75,-99.99,,,0.00,weatherlink.com 1.10,2013-04-10 12:02:00,
2013-04-10 08:17:00,59.2,51.0,29.97,SSW,196,0.0,-999.0,74,-99.99,,,0.00,weatherlink.com 1.10,2013-04-10 12:17:00,
2013-04-10 08:32:00,59.3,50.0,29.98,SSW,196,0.0,-999.0,72,-99.99,,,0.00,weatherlink.com 1.10,2013-04-10 12:32:00,
2013-04-10 09:02:00,61.5,49.0,29.97,NE,40,0.0,-999.0,64,-99.99,,,0.00,weatherlink.com 1.10,2013-04-10 13:02:00,
2013-04-10 09:17:00,64.5,51.0,29.97,WNW,282,0.0,-999.0,62,-99.99,,,0.00,weatherlink.com 1.10,2013-04-10 13:17:00,
2013-04-10 09:32:00,66.4,51.0,29.97,SSE,158,0.0,-999.0,58,-99.99,,,0.00,weatherlink.com 1.10,2013-04-10 13:32:00,
2013-04-10 09:47:00,68.8,51.0,29.96,South,171,0.0,-999.0,54,-99.99,,,0.00,weatherlink.com 1.10,2013-04-10 13:47:00,
2013-04-10 10:02:00,69.8,51.0,29.96,South,179,0.0,-999.0,52,-99.99,,,0.00,weatherlink.com 1.10,2013-04-10 14:02:00,
2013-04-10 10:17:00,71.6,52.0,29.96,SW,222,0.0,-999.0,50,-99.99,,,0.00,weatherlink.com 1.10,2013-04-10 14:17:00,
2013-04-10 10:32:00,73.3,51.0,29.96,SE,127,1.0,-999.0,46,-99.99,,,0.00,weatherlink.com 1.10,2013-04-10 14:32:00,
2013-04-10 10:47:00,73.7,52.0,29.95,SSW,192,0.0,-999.0,47,-99.99,,,0.00,weatherlink.com 1.10,2013-04-10 14:47:00,
2013-04-10 11:03:00,74.6,51.0,29.95,ENE,61,0.0,-999.0,44,-99.99,,,0.00,weatherlink.com 1.10,2013-04-10 15:03:00,
2013-04-10 11:18:00,76.1,52.0,29.95,SSE,148,2.0,-999.0,43,-99.99,,,0.00,weatherlink.com 1.10,2013-04-10 15:18:00,
2013-04-10 11:35:00,76.5,53.0,29.95,North,0,0.0,-999.0,44,-99.99,,,0.00,weatherlink.com 1.10,2013-04-10 15:35:00,
2013-04-10 11:48:00,77.6,52.0,29.95,SE,131,1.0,-999.0,41,-99.99,,,0.00,weatherlink.com 1.10,2013-04-10 15:48:00,
2013-04-10 12:03:00,78.5,52.0,29.95,NW,311,0.0,-999.0,40,-99.99,,,0.00,weatherlink.com 1.10,2013-04-10 16:03:00,
2013-04-10 12:18:00,79.2,52.0,29.94,NNW,342,0.0,-999.0,39,-99.99,,,0.00,weatherlink.com 1.10,2013-04-10 16:18:00,
2013-04-10 12:33:00,79.8,51.0,29.95,North,0,0.0,-999.0,37,-99.99,,,0.00,weatherlink.com 1.10,2013-04-10 16:33:00,
2013-04-10 12:48:00,79.6,50.0,29.93,SE,124,0.0,-999.0,35,-99.99,,,0.00,weatherlink.com 1.10,2013-04-10 16:48:00,
2013-04-10 13:03:00,79.0,52.0,29.93,South,178,0.0,-999.0,39,-99.99,,,0.00,weatherlink.com 1.10,2013-04-10 17:03:00,
2013-04-10 13:18:00,79.0,53.0,29.93,ENE,71,3.0,-999.0,41,-99.99,,,0.00,weatherlink.com 1.10,2013-04-10 17:18:00,
2013-04-10 13:33:00,80.1,56.0,29.92,NNE,17,0.0,-999.0,43,-99.99,,,0.00,weatherlink.com 1.10,2013-04-10 17:33:00,
2013-04-10 13:48:00,80.3,55.0,29.91,SSW,206,0.0,-999.0,42,-99.99,,,0.00,weatherlink.com 1.10,2013-04-10 17:48:00,
2013-04-10 14:03:00,80.3,54.0,29.91,East,89,2.0,-999.0,40,-99.99,,,0.00,weatherlink.com 1.10,2013-04-10 18:03:00,
2013-04-10 14:18:00,79.8,54.0,29.90,North,4,0.0,-999.0,41,-99.99,,,0.00,weatherlink.com 1.10,2013-04-10 18:18:00,
2013-04-10 14:33:00,79.8,53.0,29.90,NNE,27,2.0,-999.0,40,-99.99,,,0.00,weatherlink.com 1.10,2013-04-10 18:33:00,
2013-04-10 14:48:00,80.9,54.0,29.90,North,3,2.0,-999.0,39,-99.99,,,0.00,weatherlink.com 1.10,2013-04-10 18:48:00,
2013-04-10 15:03:00,80.5,52.0,29.90,NNE,13,2.0,-999.0,37,-99.99,,,0.00,weatherlink.com 1.10,2013-04-10 19:03:00,
2013-04-10 15:18:00,80.3,52.0,29.89,SSE,160,0.0,-999.0,38,-99.99,,,0.00,weatherlink.com 1.10,2013-04-10 19:18:00,
2013-04-10 15:33:00,79.9,52.0,29.88,NNE,30,2.0,-999.0,38,-99.99,,,0.00,weatherlink.com 1.10,2013-04-10 19:33:00,
2013-04-10 15:48:00,80.3,52.0,29.88,SW,215,1.0,-999.0,37,-99.99,,,0.00,weatherlink.com 1.10,2013-04-10 19:48:00,
2013-04-10 16:03:00,80.7,51.0,29.87,SW,227,0.0,-999.0,35,-99.99,,,0.00,weatherlink.com 1.10,2013-04-10 20:03:00,
2013-04-10 16:18:00,80.9,51.0,29.87,NNE,16,0.0,-999.0,36,-99.99,,,0.00,weatherlink.com 1.10,2013-04-10 20:18:00,
2013-04-10 16:48:00,81.1,51.0,29.85,East,97,0.0,-999.0,35,-99.99,,,0.00,weatherlink.com 1.10,2013-04-10 20:48:00,
2013-04-10 17:03:00,80.7,51.0,29.84,SSW,213,1.0,-999.0,35,-99.99,,,0.00,weatherlink.com 1.10,2013-04-10 21:03:00,
2013-04-10 17:18:00,80.5,50.0,29.84,SW,227,1.0,-999.0,35,-99.99,,,0.00,weatherlink.com 1.10,2013-04-10 21:18:00,
2013-04-10 17:33:00,79.9,51.0,29.84,North,7,1.0,-999.0,36,-99.99,,,0.00,weatherlink.com 1.10,2013-04-10 21:33:00,
2013-04-10 17:48:00,78.5,53.0,29.84,SSE,150,0.0,-999.0,42,-99.99,,,0.00,weatherlink.com 1.10,2013-04-10 21:48:00,
2013-04-10 18:03:00,77.6,54.0,29.84,South,185,0.0,-999.0,44,-99.99,,,0.00,weatherlink.com 1.10,2013-04-10 22:03:00,
2013-04-10 18:18:00,76.7,54.0,29.84,ENE,59,0.0,-999.0,46,-99.99,,,0.00,weatherlink.com 1.10,2013-04-10 22:18:00,
2013-04-10 18:33:00,75.1,53.0,29.83,ENE,59,6.0,-999.0,47,-99.99,,,0.00,weatherlink.com 1.10,2013-04-10 22:33:00,
2013-04-10 18:48:00,73.9,54.0,29.83,ESE,103,0.0,-999.0,50,-99.99,,,0.00,weatherlink.com 1.10,2013-04-10 22:48:00,
2013-04-10 19:03:00,72.8,54.0,29.84,NE,47,0.0,-999.0,51,-99.99,,,0.00,weatherlink.com 1.10,2013-04-10 23:03:00,
2013-04-10 19:18:00,71.8,53.0,29.84,East,88,0.0,-999.0,52,-99.99,,,0.00,weatherlink.com 1.10,2013-04-10 23:18:00,
2013-04-10 19:33:00,70.9,53.0,29.84,SSE,164,1.0,-999.0,54,-99.99,,,0.00,weatherlink.com 1.10,2013-04-10 23:33:00,
2013-04-10 19:48:00,69.8,53.0,29.84,South,181,1.0,-999.0,55,-99.99,,,0.00,weatherlink.com 1.10,2013-04-10 23:48:00,
2013-04-10 20:03:00,68.8,52.0,29.85,SSW,205,2.0,-999.0,56,-99.99,,,0.00,weatherlink.com 1.10,2013-04-11 00:03:00,
2013-04-10 20:18:00,68.1,53.0,29.86,NW,312,0.0,-999.0,58,-99.99,,,0.00,weatherlink.com 1.10,2013-04-11 00:18:00,
2013-04-10 20:33:00,67.3,52.0,29.84,SE,145,0.0,-999.0,59,-99.99,,,0.00,weatherlink.com 1.10,2013-04-11 00:33:00,
2013-04-10 20:48:00,66.8,52.0,29.84,NW,319,0.0,-999.0,59,-99.99,,,0.00,weatherlink.com 1.10,2013-04-11 00:48:00,
2013-04-10 21:03:00,66.4,52.0,29.84,South,188,0.0,-999.0,60,-99.99,,,0.00,weatherlink.com 1.10,2013-04-11 01:03:00,
2013-04-10 21:18:00,66.3,53.0,29.84,SSE,168,1.0,-999.0,62,-99.99,,,0.00,weatherlink.com 1.10,2013-04-11 01:18:00,
2013-04-10 21:33:00,66.1,53.0,29.82,South,186,0.0,-999.0,62,-99.99,,,0.00,weatherlink.com 1.10,2013-04-11 01:33:00,
2013-04-10 21:48:00,65.5,52.0,29.82,ESE,119,0.0,-999.0,63,-99.99,,,0.00,weatherlink.com 1.10,2013-04-11 01:48:00,
2013-04-10 22:03:00,65.2,53.0,29.82,SW,220,2.0,-999.0,64,-99.99,,,0.00,weatherlink.com 1.10,2013-04-11 02:03:00,
2013-04-10 22:18:00,65.2,53.0,29.82,ESE,106,1.0,-999.0,65,-99.99,,,0.00,weatherlink.com 1.10,2013-04-11 02:18:00,
2013-04-10 22:33:00,64.5,52.0,29.80,WNW,289,0.0,-999.0,65,-99.99,,,0.00,weatherlink.com 1.10,2013-04-11 02:33:00,
2013-04-10 22:48:00,64.3,52.0,29.80,SSE,148,0.0,-999.0,65,-99.99,,,0.00,weatherlink.com 1.10,2013-04-11 02:48:00,
2013-04-10 23:03:00,64.2,52.0,29.80,SE,143,0.0,-999.0,65,-99.99,,,0.00,weatherlink.com 1.10,2013-04-11 03:03:00,
2013-04-10 23:33:00,64.0,52.0,29.79,South,175,0.0,-999.0,66,-99.99,,,0.00,weatherlink.com 1.10,2013-04-11 03:33:00,
2013-04-10 23:48:00,63.7,53.0,29.79,South,191,0.0,-999.0,68,-99.99,,,0.00,weatherlink.com 1.10,2013-04-11 03:48:00,